createdAt,value
2023-03-29T00:00:32.318Z,78.25
2023-03-29T00:01:35.264Z,76.70
2023-03-29T00:02:32.513Z,76.39
2023-03-29T00:03:32.340Z,78.14
2023-03-29T00:04:32.300Z,79.28
2023-03-29T00:05:32.550Z,76.90
2023-03-29T00:06:32.324Z,77.01
2023-03-29T00:07:32.224Z,79.38
2023-03-29T00:08:32.311Z,78.87
2023-03-29T00:09:32.358Z,77.53
2023-03-29T00:10:32.211Z,77.73
2023-03-29T00:11:32.187Z,78.66
2023-03-29T00:12:32.184Z,78.87
2023-03-29T00:13:32.247Z,76.81
2023-03-29T00:14:32.166Z,79.90
2023-03-29T00:15:32.143Z,77.04
2023-03-29T00:16:32.208Z,79.83
2023-03-29T00:17:32.211Z,76.84
2023-03-29T00:18:32.145Z,78.59
2023-03-29T00:19:32.115Z,78.08
2023-03-29T00:20:32.112Z,78.80
2023-03-29T00:21:32.166Z,79.94
2023-03-29T00:22:32.085Z,78.91
2023-03-29T00:23:32.131Z,78.91
2023-03-29T00:24:32.091Z,80.04
2023-03-29T00:25:32.046Z,79.73
2023-03-29T00:26:32.179Z,79.42
2023-03-29T00:27:32.042Z,79.42
2023-03-29T00:28:32.014Z,79.83
2023-03-29T00:29:32.090Z,78.70
2023-03-29T00:30:32.001Z,78.28
2023-03-29T00:31:32.044Z,78.49
2023-03-29T00:32:32.092Z,77.77
2023-03-29T00:33:31.969Z,77.36
2023-03-29T00:34:32.107Z,78.91
2023-03-29T00:35:31.923Z,77.46
2023-03-29T00:36:31.944Z,77.15
2023-03-29T00:37:32.021Z,78.49
2023-03-29T00:38:31.876Z,77.77
2023-03-29T00:39:31.883Z,79.11
2023-03-29T00:40:32.002Z,79.22
2023-03-29T00:41:31.900Z,76.73
2023-03-29T00:42:31.879Z,78.18
2023-03-29T00:43:31.859Z,78.08
2023-03-29T00:44:32.436Z,78.70
2023-03-29T00:45:31.813Z,80.87
2023-03-29T00:46:32.141Z,78.39
2023-03-29T00:47:31.946Z,77.36
2023-03-29T00:48:31.921Z,79.22
2023-03-29T00:49:31.747Z,78.08
2023-03-29T00:50:31.796Z,77.15
2023-03-29T00:51:31.761Z,77.25
2023-03-29T00:52:31.820Z,78.39
2023-03-29T00:53:31.829Z,78.49
2023-03-29T00:54:31.757Z,77.04
2023-03-29T00:55:31.766Z,78.70
2023-03-29T00:56:31.677Z,78.59
2023-03-29T00:57:31.745Z,76.84
2023-03-29T00:58:31.707Z,78.91
2023-03-29T00:59:31.671Z,78.28
2023-03-29T01:00:31.752Z,78.49
2023-03-29T01:01:31.677Z,79.42
2023-03-29T01:02:31.761Z,79.42
2023-03-29T01:03:31.782Z,79.52
2023-03-29T01:04:31.619Z,79.42
2023-03-29T01:05:31.614Z,77.67
2023-03-29T01:06:31.719Z,77.67
2023-03-29T01:07:31.590Z,80.25
2023-03-29T01:08:31.843Z,78.28
2023-03-29T01:09:31.744Z,79.94
2023-03-29T01:10:31.591Z,79.73
2023-03-29T01:11:31.533Z,77.98
2023-03-29T01:12:31.573Z,78.70
2023-03-29T01:13:31.554Z,78.80
2023-03-29T01:14:31.500Z,80.15
2023-03-29T01:15:31.494Z,79.11
2023-03-29T01:16:31.513Z,79.63
2023-03-29T01:17:31.708Z,79.42
2023-03-29T01:18:31.478Z,79.01
2023-03-29T01:19:31.429Z,80.76
2023-03-29T01:20:31.570Z,79.11
2023-03-29T01:21:31.792Z,78.59
2023-03-29T01:22:31.475Z,78.80
2023-03-29T01:23:31.419Z,78.70
2023-03-29T01:24:31.453Z,79.42
2023-03-29T01:25:31.515Z,79.22
2023-03-29T01:26:31.425Z,80.35
2023-03-29T01:27:31.373Z,78.59
2023-03-29T01:28:31.410Z,79.42
2023-03-29T01:29:31.392Z,79.42
2023-03-29T01:30:31.396Z,79.94
2023-03-29T01:31:31.421Z,81.28
2023-03-29T01:32:31.320Z,79.63
2023-03-29T01:33:31.307Z,80.56
2023-03-29T01:34:31.294Z,80.04
2023-03-29T01:35:31.312Z,78.91
2023-03-29T01:36:31.261Z,79.73
2023-03-29T01:37:31.364Z,78.80
2023-03-29T01:38:31.276Z,78.80
2023-03-29T01:39:31.276Z,79.73
2023-03-29T01:40:31.231Z,79.94
2023-03-29T01:41:31.322Z,79.63
2023-03-29T01:42:31.331Z,80.76
2023-03-29T01:43:31.204Z,80.56
2023-03-29T01:44:31.220Z,79.32
2023-03-29T01:45:31.156Z,78.80
2023-03-29T01:46:31.261Z,80.04
2023-03-29T01:47:31.217Z,80.35
2023-03-29T01:48:31.270Z,79.73
2023-03-29T01:49:31.177Z,80.35
2023-03-29T01:50:31.151Z,79.94
2023-03-29T01:51:31.235Z,80.66
2023-03-29T01:52:31.110Z,80.66
2023-03-29T01:53:31.109Z,79.32
2023-03-29T01:54:31.188Z,80.87
2023-03-29T01:55:31.098Z,80.66
2023-03-29T01:56:31.271Z,80.46
2023-03-29T01:57:31.045Z,80.87
2023-03-29T01:58:31.020Z,80.87
2023-03-29T01:59:31.276Z,80.56
2023-03-29T02:00:30.978Z,80.56
2023-03-29T02:01:31.125Z,80.56
2023-03-29T02:02:31.130Z,80.97
2023-03-29T02:03:31.213Z,80.97
2023-03-29T02:04:31.673Z,79.32
2023-03-29T02:05:30.932Z,79.73
2023-03-29T02:06:30.986Z,80.76
2023-03-29T02:07:30.925Z,80.39
2023-03-29T02:08:30.974Z,81.32
2023-03-29T02:09:31.230Z,81.18
2023-03-29T02:10:30.963Z,79.63
2023-03-29T02:11:30.975Z,79.77
2023-03-29T02:12:30.934Z,79.46
2023-03-29T02:13:30.908Z,80.29
2023-03-29T02:14:30.851Z,79.52
2023-03-29T02:15:30.909Z,80.60
2023-03-29T02:16:31.259Z,80.35
2023-03-29T02:17:30.842Z,82.10
2023-03-29T02:18:30.957Z,81.80
2023-03-29T02:19:30.847Z,81.52
2023-03-29T02:20:30.780Z,80.08
2023-03-29T02:21:30.835Z,81.84
2023-03-29T02:22:30.770Z,80.70
2023-03-29T02:23:30.801Z,80.18
2023-03-29T02:24:30.778Z,82.25
2023-03-29T02:25:31.201Z,82.25
2023-03-29T02:26:30.718Z,82.15
2023-03-29T02:27:30.718Z,81.18
2023-03-29T02:28:30.847Z,79.97
2023-03-29T02:29:30.687Z,81.11
2023-03-29T02:30:30.734Z,82.25
2023-03-29T02:31:30.772Z,81.94
2023-03-29T02:32:30.695Z,80.60
2023-03-29T02:33:30.639Z,81.01
2023-03-29T02:34:30.699Z,81.94
2023-03-29T02:35:30.747Z,81.01
2023-03-29T02:36:30.660Z,81.52
2023-03-29T02:37:30.650Z,82.35
2023-03-29T02:38:30.632Z,81.84
2023-03-29T02:39:30.688Z,81.84
2023-03-29T02:40:30.598Z,81.11
2023-03-29T02:41:30.583Z,82.45
2023-03-29T02:42:30.521Z,81.52
2023-03-29T02:43:30.598Z,81.01
2023-03-29T02:44:30.537Z,80.90
2023-03-29T02:45:30.652Z,81.52
2023-03-29T02:46:30.551Z,82.56
2023-03-29T02:47:30.574Z,81.73
2023-03-29T02:48:30.491Z,81.32
2023-03-29T02:49:30.456Z,80.90
2023-03-29T02:50:30.480Z,81.84
2023-03-29T02:51:30.550Z,81.73
2023-03-29T02:52:30.427Z,81.32
2023-03-29T02:53:30.579Z,80.70
2023-03-29T02:54:30.459Z,81.11
2023-03-29T02:55:30.458Z,82.04
2023-03-29T02:56:30.458Z,81.63
2023-03-29T02:57:30.497Z,82.15
2023-03-29T02:58:30.475Z,81.63
2023-03-29T02:59:30.390Z,81.52
2023-03-29T03:00:30.511Z,82.56
2023-03-29T03:01:30.453Z,81.21
2023-03-29T03:02:30.343Z,82.35
2023-03-29T03:03:30.506Z,82.15
2023-03-29T03:04:30.362Z,81.94
2023-03-29T03:05:30.420Z,80.60
2023-03-29T03:06:30.289Z,81.42
2023-03-29T03:07:30.280Z,80.90
2023-03-29T03:08:30.359Z,82.45
2023-03-29T03:09:30.269Z,80.39
2023-03-29T03:10:30.262Z,81.94
2023-03-29T03:11:30.236Z,81.84
2023-03-29T03:12:30.278Z,81.73
2023-03-29T03:13:30.205Z,81.42
2023-03-29T03:14:30.348Z,82.56
2023-03-29T03:15:30.272Z,81.94
2023-03-29T03:16:30.221Z,82.66
2023-03-29T03:17:30.304Z,82.87
2023-03-29T03:18:30.166Z,80.80
2023-03-29T03:19:30.190Z,81.87
2023-03-29T03:20:30.220Z,82.80
2023-03-29T03:21:30.143Z,82.45
2023-03-29T03:22:30.262Z,80.94
2023-03-29T03:23:30.134Z,82.25
2023-03-29T03:24:30.168Z,82.39
2023-03-29T03:25:30.184Z,82.29
2023-03-29T03:26:30.352Z,81.05
2023-03-29T03:27:30.194Z,82.29
2023-03-29T03:28:30.084Z,83.11
2023-03-29T03:29:30.068Z,81.84
2023-03-29T03:30:30.016Z,81.87
2023-03-29T03:31:30.044Z,82.70
2023-03-29T03:32:30.055Z,82.90
2023-03-29T03:33:30.025Z,81.56
2023-03-29T03:34:30.026Z,82.80
2023-03-29T03:35:30.004Z,81.35
2023-03-29T03:36:30.029Z,83.53
2023-03-29T03:37:30.005Z,82.39
2023-03-29T03:38:30.009Z,81.35
2023-03-29T03:39:29.997Z,83.11
2023-03-29T03:40:30.022Z,83.01
2023-03-29T03:41:29.958Z,82.08
2023-03-29T03:42:30.019Z,82.29
2023-03-29T03:43:29.947Z,83.22
2023-03-29T03:44:29.872Z,82.80
2023-03-29T03:45:29.908Z,82.08
2023-03-29T03:46:29.989Z,81.05
2023-03-29T03:47:29.855Z,81.05
2023-03-29T03:48:29.898Z,81.56
2023-03-29T03:49:29.924Z,82.08
2023-03-29T03:50:29.893Z,82.08
2023-03-29T03:51:29.814Z,81.56
2023-03-29T03:52:29.817Z,83.01
2023-03-29T03:53:29.831Z,82.80
2023-03-29T03:54:29.758Z,82.60
2023-03-29T03:55:29.870Z,82.29
2023-03-29T03:56:29.778Z,82.08
2023-03-29T03:57:29.811Z,82.60
2023-03-29T03:58:29.744Z,83.01
2023-03-29T03:59:29.726Z,82.29
2023-03-29T04:00:30.146Z,80.74
2023-03-29T04:01:29.767Z,82.50
2023-03-29T04:02:29.752Z,82.18
2023-03-29T04:03:29.765Z,82.90
2023-03-29T04:04:29.693Z,82.18
2023-03-29T04:05:29.697Z,82.29
2023-03-29T04:06:29.718Z,82.08
2023-03-29T04:07:29.644Z,82.08
2023-03-29T04:08:29.630Z,81.87
2023-03-29T04:09:29.606Z,81.25
2023-03-29T04:10:29.557Z,84.45
2023-03-29T04:11:29.613Z,82.70
2023-03-29T04:12:29.565Z,80.53
2023-03-29T04:13:29.552Z,82.60
2023-03-29T04:14:29.572Z,81.87
2023-03-29T04:15:29.583Z,80.63
2023-03-29T04:16:29.645Z,81.67
2023-03-29T04:17:29.507Z,82.70
2023-03-29T04:18:29.678Z,81.56
2023-03-29T04:19:29.511Z,81.77
2023-03-29T04:20:29.564Z,82.80
2023-03-29T04:21:29.561Z,82.90
2023-03-29T04:22:29.477Z,83.73
2023-03-29T04:23:29.494Z,83.84
2023-03-29T04:24:29.494Z,83.53
2023-03-29T04:25:29.492Z,84.36
2023-03-29T04:26:29.548Z,82.18
2023-03-29T04:27:29.407Z,80.22
2023-03-29T04:28:29.442Z,83.01
2023-03-29T04:29:29.424Z,84.05
2023-03-29T04:30:29.474Z,81.35
2023-03-29T04:31:29.439Z,83.84
2023-03-29T04:32:29.687Z,82.08
2023-03-29T04:33:29.554Z,84.21
2023-03-29T04:34:29.328Z,81.01
2023-03-29T04:35:29.339Z,80.53
2023-03-29T04:36:29.388Z,80.11
2023-03-29T04:37:29.325Z,81.67
2023-03-29T04:38:29.280Z,82.56
2023-03-29T04:39:29.300Z,85.04
2023-03-29T04:40:29.319Z,82.25
2023-03-29T04:41:29.327Z,81.94
2023-03-29T04:42:29.216Z,83.28
2023-03-29T04:43:29.243Z,83.90
2023-03-29T04:44:29.257Z,82.97
2023-03-29T04:45:29.317Z,83.49
2023-03-29T04:46:29.196Z,81.73
2023-03-29T04:47:29.283Z,82.04
2023-03-29T04:48:29.206Z,82.56
2023-03-29T04:49:29.162Z,82.66
2023-03-29T04:50:29.353Z,82.04
2023-03-29T04:51:29.168Z,83.39
2023-03-29T04:52:29.095Z,83.59
2023-03-29T04:53:29.121Z,81.84
2023-03-29T04:54:29.108Z,82.97
2023-03-29T04:55:29.277Z,82.35
2023-03-29T04:56:29.090Z,82.25
2023-03-29T04:57:29.191Z,82.56
2023-03-29T04:58:32.306Z,82.66
2023-03-29T04:59:29.492Z,82.15
2023-03-29T05:00:29.118Z,83.07
2023-03-29T05:01:29.094Z,81.84
2023-03-29T05:02:29.071Z,81.01
2023-03-29T05:03:29.017Z,81.21
2023-03-29T05:04:29.184Z,81.32
2023-03-29T05:05:30.162Z,81.52
2023-03-29T05:06:29.165Z,80.49
2023-03-29T05:07:28.928Z,83.49
2023-03-29T05:08:28.898Z,82.66
2023-03-29T05:09:28.969Z,83.07
2023-03-29T05:10:28.985Z,81.32
2023-03-29T05:11:28.928Z,82.66
2023-03-29T05:12:28.895Z,84.83
2023-03-29T05:13:28.865Z,83.70
2023-03-29T05:14:29.017Z,81.84
2023-03-29T05:15:28.839Z,81.94
2023-03-29T05:16:29.897Z,83.90
2023-03-29T05:17:28.838Z,82.04
2023-03-29T05:18:28.791Z,82.15
2023-03-29T05:19:28.781Z,81.63
2023-03-29T05:20:28.990Z,82.15
2023-03-29T05:21:28.860Z,83.28
2023-03-29T05:22:28.818Z,83.28
2023-03-29T05:23:28.763Z,83.39
2023-03-29T05:24:28.737Z,81.11
2023-03-29T05:25:29.301Z,83.49
2023-03-29T05:26:28.691Z,81.84
2023-03-29T05:27:28.768Z,82.76
2023-03-29T05:28:28.724Z,83.70
2023-03-29T05:29:28.799Z,83.59
2023-03-29T05:30:28.745Z,82.10
2023-03-29T05:31:28.779Z,82.62
2023-03-29T05:32:28.734Z,80.70
2023-03-29T05:33:28.734Z,83.07
2023-03-29T05:34:28.615Z,81.21
2023-03-29T05:35:28.700Z,82.87
2023-03-29T05:36:28.582Z,81.01
2023-03-29T05:37:28.743Z,80.18
2023-03-29T05:38:28.639Z,80.80
2023-03-29T05:39:28.573Z,80.39
2023-03-29T05:40:28.587Z,80.39
2023-03-29T05:41:28.556Z,81.63
2023-03-29T05:42:28.545Z,81.32
2023-03-29T05:43:28.520Z,81.18
2023-03-29T05:44:28.548Z,81.38
2023-03-29T05:45:28.593Z,81.28
2023-03-29T05:46:28.521Z,82.62
2023-03-29T05:47:28.491Z,81.59
2023-03-29T05:48:28.475Z,83.86
2023-03-29T05:49:28.503Z,83.86
2023-03-29T05:50:28.439Z,80.15
2023-03-29T05:51:28.455Z,79.11
2023-03-29T05:52:28.429Z,81.49
2023-03-29T05:53:28.427Z,80.46
2023-03-29T05:54:28.435Z,83.25
2023-03-29T05:55:28.427Z,80.87
2023-03-29T05:56:28.377Z,80.97
2023-03-29T05:57:28.427Z,82.42
2023-03-29T05:58:28.461Z,81.59
2023-03-29T05:59:28.372Z,81.59
2023-03-29T06:00:28.372Z,80.46
2023-03-29T06:01:28.374Z,81.45
2023-03-29T06:02:28.396Z,81.35
2023-03-29T06:03:28.470Z,82.59
2023-03-29T06:04:28.352Z,82.59
2023-03-29T06:05:28.296Z,80.42
2023-03-29T06:06:28.659Z,80.52
2023-03-29T06:07:28.311Z,81.45
2023-03-29T06:08:28.431Z,79.38
2023-03-29T06:09:28.228Z,81.35
2023-03-29T06:10:28.291Z,82.17
2023-03-29T06:11:28.237Z,81.45
2023-03-29T06:12:28.260Z,81.24
2023-03-29T06:13:28.202Z,81.04
2023-03-29T06:14:28.199Z,81.76
2023-03-29T06:15:28.216Z,81.31
2023-03-29T06:16:28.204Z,79.76
2023-03-29T06:17:28.197Z,81.51
2023-03-29T06:18:28.194Z,81.62
2023-03-29T06:19:28.133Z,82.03
2023-03-29T06:20:28.134Z,81.51
2023-03-29T06:21:28.123Z,81.41
2023-03-29T06:22:28.131Z,80.69
2023-03-29T06:23:28.095Z,80.58
2023-03-29T06:24:28.125Z,80.65
2023-03-29T06:25:28.164Z,79.83
2023-03-29T06:26:28.073Z,79.41
2023-03-29T06:27:28.127Z,79.72
2023-03-29T06:28:28.040Z,79.83
2023-03-29T06:29:28.037Z,79.31
2023-03-29T06:30:28.024Z,80.14
2023-03-29T06:31:28.057Z,80.34
2023-03-29T06:32:28.045Z,79.83
2023-03-29T06:33:28.009Z,79.41
2023-03-29T06:34:27.971Z,79.83
2023-03-29T06:35:28.109Z,80.41
2023-03-29T06:36:27.984Z,79.90
2023-03-29T06:37:27.987Z,80.20
2023-03-29T06:38:28.158Z,80.00
2023-03-29T06:39:27.907Z,78.66
2023-03-29T06:40:27.934Z,78.34
2023-03-29T06:41:28.065Z,78.76
2023-03-29T06:42:28.078Z,78.62
2023-03-29T06:43:27.895Z,79.75
2023-03-29T06:44:27.864Z,79.65
2023-03-29T06:45:29.322Z,78.31
2023-03-29T06:46:27.915Z,78.62
2023-03-29T06:47:27.881Z,79.96
2023-03-29T06:48:27.820Z,78.62
2023-03-29T06:49:27.854Z,79.24
2023-03-29T06:50:27.809Z,77.59
2023-03-29T06:51:27.820Z,78.62
2023-03-29T06:52:27.790Z,79.20
2023-03-29T06:53:27.779Z,80.13
2023-03-29T06:54:27.787Z,77.55
2023-03-29T06:55:27.794Z,78.58
2023-03-29T06:56:27.741Z,76.11
2023-03-29T06:57:27.855Z,77.97
2023-03-29T06:58:27.750Z,77.76
2023-03-29T06:59:27.707Z,78.07
2023-03-29T07:00:27.761Z,77.76
2023-03-29T07:01:27.735Z,79.00
2023-03-29T07:02:27.674Z,77.86
2023-03-29T07:03:27.681Z,79.41
2023-03-29T07:04:27.737Z,78.38
2023-03-29T07:05:27.651Z,77.66
2023-03-29T07:06:27.667Z,76.83
2023-03-29T07:07:27.658Z,76.11
2023-03-29T07:08:27.648Z,77.45
2023-03-29T07:09:27.683Z,78.17
2023-03-29T07:10:27.599Z,79.41
2023-03-29T07:11:27.576Z,78.58
2023-03-29T07:12:27.562Z,78.79
2023-03-29T07:13:27.566Z,76.53
2023-03-29T07:14:27.550Z,77.97
2023-03-29T07:15:27.569Z,77.14
2023-03-29T07:16:27.576Z,78.28
2023-03-29T07:17:27.705Z,77.72
2023-03-29T07:18:27.519Z,77.83
2023-03-29T07:19:27.566Z,77.72
2023-03-29T07:20:27.481Z,77.00
2023-03-29T07:21:27.472Z,77.51
2023-03-29T07:22:27.483Z,77.11
2023-03-29T07:23:27.479Z,76.28
2023-03-29T07:24:27.526Z,77.42
2023-03-29T07:25:27.426Z,76.79
2023-03-29T07:26:28.311Z,76.70
2023-03-29T07:27:27.445Z,76.39
2023-03-29T07:28:27.411Z,76.70
2023-03-29T07:29:27.424Z,77.42
2023-03-29T07:30:29.036Z,77.31
2023-03-29T07:31:27.358Z,77.45
2023-03-29T07:32:27.434Z,77.97
2023-03-29T07:33:27.469Z,76.83
2023-03-29T07:34:27.354Z,76.63
2023-03-29T07:35:27.296Z,77.45
2023-03-29T07:36:27.345Z,76.42
2023-03-29T07:37:27.335Z,76.42
2023-03-29T07:38:27.287Z,77.76
2023-03-29T07:39:27.357Z,78.48
2023-03-29T07:40:27.331Z,78.28
2023-03-29T07:41:27.299Z,77.45
2023-03-29T07:42:27.220Z,77.97
2023-03-29T07:43:27.274Z,77.45
2023-03-29T07:44:27.342Z,76.53
2023-03-29T07:45:28.599Z,77.76
2023-03-29T07:46:27.202Z,76.93
2023-03-29T07:47:27.211Z,76.70
2023-03-29T07:48:27.165Z,77.72
2023-03-29T07:49:27.160Z,77.00
2023-03-29T07:50:27.173Z,77.11
2023-03-29T07:51:27.149Z,76.59
2023-03-29T07:52:27.143Z,77.42
2023-03-29T07:53:27.239Z,76.90
2023-03-29T07:54:27.109Z,76.59
2023-03-29T07:55:27.108Z,77.11
2023-03-29T07:56:27.124Z,76.28
2023-03-29T07:57:27.440Z,77.00
2023-03-29T07:58:27.079Z,76.90
2023-03-29T07:59:27.040Z,76.39
2023-03-29T08:00:27.191Z,75.32
2023-03-29T08:01:27.152Z,77.48
2023-03-29T08:02:27.065Z,76.76
2023-03-29T08:03:27.102Z,76.86
2023-03-29T08:04:27.099Z,74.80
2023-03-29T08:05:40.165Z,75.52
2023-03-29T08:06:27.062Z,76.04
2023-03-29T08:07:27.048Z,76.56
2023-03-29T08:08:26.970Z,75.32
2023-03-29T08:09:26.992Z,76.25
2023-03-29T08:10:26.921Z,75.59
2023-03-29T08:11:26.996Z,75.29
2023-03-29T08:12:26.967Z,75.18
2023-03-29T08:13:26.894Z,75.59
2023-03-29T08:14:27.014Z,73.54
2023-03-29T08:15:27.137Z,76.73
2023-03-29T08:16:27.014Z,76.01
2023-03-29T08:17:26.952Z,74.57
2023-03-29T08:18:26.893Z,74.98
2023-03-29T08:19:26.848Z,75.29
2023-03-29T08:20:26.811Z,74.05
2023-03-29T08:21:26.839Z,74.46
2023-03-29T08:22:27.079Z,75.29
2023-03-29T08:23:26.817Z,74.67
2023-03-29T08:24:26.849Z,74.67
2023-03-29T08:25:26.786Z,74.57
2023-03-29T08:26:26.847Z,72.92
2023-03-29T08:27:26.778Z,74.33
2023-03-29T08:28:26.840Z,74.57
2023-03-29T08:29:26.745Z,74.87
2023-03-29T08:30:26.701Z,74.67
2023-03-29T08:31:26.744Z,74.46
2023-03-29T08:32:26.751Z,73.95
2023-03-29T08:33:26.716Z,74.36
2023-03-29T08:34:26.732Z,72.61
2023-03-29T08:35:26.814Z,73.71
2023-03-29T08:36:26.661Z,74.22
2023-03-29T08:37:26.654Z,73.40
2023-03-29T08:38:26.721Z,73.50
2023-03-29T08:39:26.685Z,73.98
2023-03-29T08:40:26.681Z,73.06
2023-03-29T08:41:26.791Z,73.36
2023-03-29T08:42:26.611Z,73.36
2023-03-29T08:43:26.595Z,73.85
2023-03-29T08:44:26.579Z,73.44
2023-03-29T08:45:26.715Z,72.82
2023-03-29T08:46:34.240Z,72.61
2023-03-29T08:47:26.549Z,72.92
2023-03-29T08:48:26.557Z,71.66
2023-03-29T08:49:26.579Z,70.84
2023-03-29T08:50:26.506Z,71.66
2023-03-29T08:51:26.557Z,72.48
2023-03-29T08:52:26.466Z,72.14
2023-03-29T08:53:26.627Z,71.42
2023-03-29T08:54:26.503Z,70.39
2023-03-29T08:55:26.523Z,70.18
2023-03-29T08:56:26.429Z,71.31
2023-03-29T08:57:26.493Z,71.69
2023-03-29T08:58:26.467Z,69.13
2023-03-29T08:59:26.427Z,71.28
2023-03-29T09:00:26.531Z,69.92
2023-03-29T09:01:26.408Z,70.22
2023-03-29T09:02:26.573Z,70.43
2023-03-29T09:03:26.509Z,70.12
2023-03-29T09:04:26.355Z,67.86
2023-03-29T09:05:26.363Z,68.76
2023-03-29T09:06:26.316Z,68.96
2023-03-29T09:07:26.704Z,69.44
2023-03-29T09:08:26.389Z,69.44
2023-03-29T09:09:26.306Z,69.54
2023-03-29T09:10:26.418Z,67.90
2023-03-29T09:11:26.274Z,68.52
2023-03-29T09:12:26.319Z,68.62
2023-03-29T09:13:26.390Z,69.65
2023-03-29T09:14:26.234Z,69.24
2023-03-29T09:15:26.297Z,68.24
2023-03-29T09:16:26.447Z,70.09
2023-03-29T09:17:26.436Z,68.14
2023-03-29T09:18:26.199Z,68.04
2023-03-29T09:19:26.344Z,69.37
2023-03-29T09:20:26.168Z,69.17
2023-03-29T09:21:26.164Z,69.68
2023-03-29T09:22:26.165Z,67.63
2023-03-29T09:23:26.221Z,69.78
2023-03-29T09:24:26.123Z,69.78
2023-03-29T09:25:26.209Z,70.29
2023-03-29T09:26:26.113Z,68.65
2023-03-29T09:27:26.110Z,69.47
2023-03-29T09:28:26.070Z,69.37
2023-03-29T09:29:26.183Z,69.06
2023-03-29T09:30:26.070Z,70.29
2023-03-29T09:31:26.102Z,70.09
2023-03-29T09:32:26.116Z,69.17
2023-03-29T09:33:26.086Z,68.65
2023-03-29T09:34:26.061Z,68.55
2023-03-29T09:35:25.991Z,68.24
2023-03-29T09:36:26.008Z,69.27
2023-03-29T09:37:26.008Z,69.37
2023-03-29T09:38:25.988Z,68.35
2023-03-29T09:39:26.029Z,69.27
2023-03-29T09:40:25.933Z,69.27
2023-03-29T09:41:25.974Z,69.98
2023-03-29T09:42:25.938Z,69.57
2023-03-29T09:43:26.021Z,70.09
2023-03-29T09:44:31.228Z,68.45
2023-03-29T09:45:26.063Z,69.57
2023-03-29T09:46:25.856Z,69.37
2023-03-29T09:47:25.918Z,70.16
2023-03-29T09:48:25.958Z,68.73
2023-03-29T09:49:25.991Z,68.69
2023-03-29T09:50:31.546Z,67.57
2023-03-29T09:51:25.828Z,66.92
2023-03-29T09:52:25.909Z,66.61
2023-03-29T09:53:25.826Z,67.30
2023-03-29T09:54:25.862Z,66.28
2023-03-29T09:55:25.840Z,65.25
2023-03-29T09:56:25.782Z,67.07
2023-03-29T09:57:25.812Z,65.66
2023-03-29T09:58:25.779Z,64.71
2023-03-29T09:59:25.833Z,65.84
2023-03-29T10:00:25.716Z,66.83
2023-03-29T10:01:25.735Z,65.40
2023-03-29T10:02:25.754Z,64.78
2023-03-29T10:03:25.729Z,64.68
2023-03-29T10:04:25.773Z,64.68
2023-03-29T10:05:25.783Z,64.37
2023-03-29T10:06:25.780Z,62.92
2023-03-29T10:07:25.741Z,64.86
2023-03-29T10:08:25.622Z,64.89
2023-03-29T10:09:25.713Z,64.99
2023-03-29T10:10:25.612Z,63.45
2023-03-29T10:11:25.833Z,64.58
2023-03-29T10:12:25.670Z,65.37
2023-03-29T10:13:25.636Z,62.81
2023-03-29T10:14:25.679Z,64.52
2023-03-29T10:15:29.685Z,64.31
2023-03-29T10:16:25.625Z,64.31
2023-03-29T10:17:25.616Z,63.60
2023-03-29T10:18:25.861Z,63.29
2023-03-29T10:19:25.541Z,63.16
2023-03-29T10:20:25.485Z,63.37
2023-03-29T10:21:25.588Z,61.71
2023-03-29T10:22:25.589Z,64.05
2023-03-29T10:23:25.508Z,63.13
2023-03-29T10:24:25.505Z,61.09
2023-03-29T10:25:25.537Z,63.10
2023-03-29T10:26:25.464Z,63.10
2023-03-29T10:27:25.506Z,62.59
2023-03-29T10:28:25.430Z,62.18
2023-03-29T10:29:25.446Z,63.31
2023-03-29T10:30:25.445Z,63.51
2023-03-29T10:31:25.410Z,63.31
2023-03-29T10:32:25.431Z,63.03
2023-03-29T10:33:25.356Z,63.85
2023-03-29T10:34:25.349Z,63.87
2023-03-29T10:35:25.485Z,63.98
2023-03-29T10:36:25.373Z,65.10
2023-03-29T10:37:25.345Z,64.42
2023-03-29T10:38:25.380Z,66.05
2023-03-29T10:39:25.354Z,65.03
2023-03-29T10:40:25.414Z,65.10
2023-03-29T10:41:25.306Z,65.74
2023-03-29T10:42:25.378Z,64.62
2023-03-29T10:43:25.266Z,64.11
2023-03-29T10:44:25.227Z,65.95
2023-03-29T10:45:25.247Z,65.54
2023-03-29T10:46:25.229Z,63.67
2023-03-29T10:47:25.785Z,65.81
2023-03-29T10:48:25.487Z,65.00
2023-03-29T10:49:25.350Z,63.47
2023-03-29T10:50:25.210Z,64.79
2023-03-29T10:51:25.145Z,64.28
2023-03-29T10:52:25.183Z,65.41
2023-03-29T10:53:25.486Z,65.71
2023-03-29T10:54:25.163Z,65.20
2023-03-29T10:55:25.149Z,67.14
2023-03-29T10:56:25.131Z,65.13
2023-03-29T10:57:25.203Z,65.84
2023-03-29T10:58:25.100Z,66.46
2023-03-29T10:59:25.210Z,65.92
2023-03-29T11:00:25.138Z,66.22
2023-03-29T11:01:25.093Z,65.51
2023-03-29T11:02:25.120Z,66.12
2023-03-29T11:03:25.211Z,66.25
2023-03-29T11:04:25.086Z,66.86
2023-03-29T11:05:25.149Z,67.65
2023-03-29T11:06:25.028Z,65.74
2023-03-29T11:07:25.028Z,65.44
2023-03-29T11:08:25.001Z,66.25
2023-03-29T11:09:24.975Z,66.56
2023-03-29T11:10:25.010Z,65.95
2023-03-29T11:11:25.025Z,66.25
2023-03-29T11:12:24.953Z,66.12
2023-03-29T11:13:24.982Z,66.33
2023-03-29T11:14:24.936Z,66.09
2023-03-29T11:15:24.911Z,64.12
2023-03-29T11:16:25.015Z,65.86
2023-03-29T11:17:24.910Z,63.92
2023-03-29T11:18:24.866Z,64.73
2023-03-29T11:19:24.986Z,64.43
2023-03-29T11:20:24.928Z,65.45
2023-03-29T11:21:24.855Z,65.45
2023-03-29T11:22:25.176Z,64.84
2023-03-29T11:23:24.853Z,64.53
2023-03-29T11:24:24.946Z,64.63
2023-03-29T11:25:24.880Z,65.34
2023-03-29T11:26:24.816Z,64.84
2023-03-29T11:27:24.807Z,64.60
2023-03-29T11:28:24.877Z,64.81
2023-03-29T11:29:24.839Z,64.70
2023-03-29T11:30:24.778Z,63.96
2023-03-29T11:31:24.840Z,63.76
2023-03-29T11:32:24.790Z,64.06
2023-03-29T11:33:24.712Z,62.13
2023-03-29T11:34:24.792Z,64.47
2023-03-29T11:35:24.701Z,63.96
2023-03-29T11:36:24.745Z,60.68
2023-03-29T11:37:24.682Z,62.98
2023-03-29T11:38:24.699Z,62.85
2023-03-29T11:39:24.677Z,61.43
2023-03-29T11:40:24.610Z,60.59
2023-03-29T11:41:24.648Z,61.88
2023-03-29T11:42:24.736Z,61.14
2023-03-29T11:43:24.602Z,61.01
2023-03-29T11:44:24.658Z,60.10
2023-03-29T11:45:24.600Z,59.46
2023-03-29T11:46:24.710Z,58.85
2023-03-29T11:47:24.603Z,60.58
2023-03-29T11:48:24.600Z,59.56
2023-03-29T11:49:24.596Z,59.97
2023-03-29T11:50:24.564Z,58.47
2023-03-29T11:51:24.551Z,60.91
2023-03-29T11:52:24.519Z,60.81
2023-03-29T11:53:24.523Z,58.98
2023-03-29T11:54:24.516Z,60.17
2023-03-29T11:55:24.477Z,60.68
2023-03-29T11:56:24.497Z,60.17
2023-03-29T11:57:24.559Z,61.18
2023-03-29T11:58:25.214Z,61.59
2023-03-29T11:59:24.420Z,61.32
2023-03-29T12:00:24.458Z,62.13
2023-03-29T12:01:24.414Z,60.91
2023-03-29T12:02:24.577Z,61.52
2023-03-29T12:03:24.621Z,61.99
2023-03-29T12:04:24.430Z,60.47
2023-03-29T12:05:24.433Z,59.97
2023-03-29T12:06:24.401Z,59.16
2023-03-29T12:07:24.571Z,61.11
2023-03-29T12:08:24.582Z,61.11
2023-03-29T12:09:24.409Z,61.55
2023-03-29T12:10:24.385Z,60.53
2023-03-29T12:11:24.403Z,61.52
2023-03-29T12:12:24.529Z,60.91
2023-03-29T12:13:24.289Z,61.49
2023-03-29T12:14:26.082Z,58.45
2023-03-29T12:15:24.510Z,61.56
2023-03-29T12:16:24.397Z,61.25
2023-03-29T12:17:24.684Z,59.81
2023-03-29T12:18:24.477Z,59.41
2023-03-29T12:19:24.248Z,61.05
2023-03-29T12:20:24.477Z,60.21
2023-03-29T12:21:24.342Z,60.08
2023-03-29T12:22:24.281Z,58.87
2023-03-29T12:23:24.263Z,59.42
2023-03-29T12:24:24.267Z,58.15
2023-03-29T12:25:24.320Z,57.65
2023-03-29T12:26:24.457Z,58.43
2023-03-29T12:27:24.338Z,57.11
2023-03-29T12:28:24.358Z,54.91
2023-03-29T12:29:24.203Z,57.44
2023-03-29T12:30:24.099Z,58.69
2023-03-29T12:31:24.146Z,58.18
2023-03-29T12:32:24.242Z,57.98
2023-03-29T12:33:25.080Z,57.50
2023-03-29T12:34:24.340Z,58.28
2023-03-29T12:35:24.246Z,57.65
2023-03-29T12:36:24.030Z,55.67
2023-03-29T12:37:24.151Z,57.14
2023-03-29T12:38:24.154Z,55.72
2023-03-29T12:39:24.227Z,57.03
2023-03-29T12:40:24.003Z,56.12
2023-03-29T12:41:23.982Z,54.68
2023-03-29T12:42:24.080Z,56.27
2023-03-29T12:43:23.986Z,52.24
2023-03-29T12:44:23.990Z,54.76
2023-03-29T12:45:24.084Z,54.99
2023-03-29T12:46:23.955Z,56.15
2023-03-29T12:47:24.471Z,57.18
2023-03-29T12:48:23.938Z,57.31
2023-03-29T12:49:24.015Z,58.12
2023-03-29T12:50:24.019Z,57.31
2023-03-29T12:51:24.072Z,58.45
2023-03-29T12:52:23.885Z,60.88